sensor_id;sensor_type;location;lat;lon;timestamp;P1;P2;P0
78063;PMS5003;67429;51.596;-3.264;2023-05-07T00:00:37;20;20;
78063;PMS5003;67429;51.596;-3.264;2023-05-07T00:03:03;21;21;
78063;PMS5003;67429;51.596;-3.264;2023-05-07T00:05:28;18;18;
78063;PMS5003;67429;51.596;-3.264;2023-05-07T00:07:54;18;18;
78063;PMS5003;67429;51.596;-3.264;2023-05-07T00:10:19;16;15;
78063;PMS5003;67429;51.596;-3.264;2023-05-07T00:12:44;15;15;
78063;PMS5003;67429;51.596;-3.264;2023-05-07T00:15:10;21;19;
78063;PMS5003;67429;51.596;-3.264;2023-05-07T00:17:35;14;14;
78063;PMS5003;67429;51.596;-3.264;2023-05-07T00:20:00;15;15;
78063;PMS5003;67429;51.596;-3.264;2023-05-07T00:22:25;11;11;
78063;PMS5003;67429;51.596;-3.264;2023-05-07T00:24:51;13;12;
78063;PMS5003;67429;51.596;-3.264;2023-05-07T00:27:17;8;8;
78063;PMS5003;67429;51.596;-3.264;2023-05-07T00:29:42;12;12;
78063;PMS5003;67429;51.596;-3.264;2023-05-07T00:32:08;11;11;
78063;PMS5003;67429;51.596;-3.264;2023-05-07T00:34:34;13;12;
78063;PMS5003;67429;51.596;-3.264;2023-05-07T00:36:59;12;12;
78063;PMS5003;67429;51.596;-3.264;2023-05-07T00:39:24;10;10;
78063;PMS5003;67429;51.596;-3.264;2023-05-07T00:41:49;16;15;
78063;PMS5003;67429;51.596;-3.264;2023-05-07T00:44:15;12;11;
78063;PMS5003;67429;51.596;-3.264;2023-05-07T00:46:40;13;12;
78063;PMS5003;67429;51.596;-3.264;2023-05-07T00:49:06;10;10;
78063;PMS5003;67429;51.596;-3.264;2023-05-07T00:51:32;14;14;
78063;PMS5003;67429;51.596;-3.264;2023-05-07T00:53:57;12;12;
78063;PMS5003;67429;51.596;-3.264;2023-05-07T00:56:22;15;14;
78063;PMS5003;67429;51.596;-3.264;2023-05-07T00:58:48;17;16;
78063;PMS5003;67429;51.596;-3.264;2023-05-07T01:01:14;16;15;
78063;PMS5003;67429;51.596;-3.264;2023-05-07T01:03:39;18;13;
78063;PMS5003;67429;51.596;-3.264;2023-05-07T01:06:04;11;11;
78063;PMS5003;67429;51.596;-3.264;2023-05-07T01:08:30;13;13;
78063;PMS5003;67429;51.596;-3.264;2023-05-07T01:10:56;11;11;
78063;PMS5003;67429;51.596;-3.264;2023-05-07T01:13:21;18;16;
78063;PMS5003;67429;51.596;-3.264;2023-05-07T01:15:47;10;10;
78063;PMS5003;67429;51.596;-3.264;2023-05-07T01:18:12;10;10;
78063;PMS5003;67429;51.596;-3.264;2023-05-07T01:20:38;7;7;
78063;PMS5003;67429;51.596;-3.264;2023-05-07T01:23:04;13;12;
78063;PMS5003;67429;51.596;-3.264;2023-05-07T01:25:30;14;13;
78063;PMS5003;67429;51.596;-3.264;2023-05-07T01:27:55;16;14;
78063;PMS5003;67429;51.596;-3.264;2023-05-07T01:30:20;14;14;
78063;PMS5003;67429;51.596;-3.264;2023-05-07T01:32:47;12;12;
78063;PMS5003;67429;51.596;-3.264;2023-05-07T01:35:11;11;10;
78063;PMS5003;67429;51.596;-3.264;2023-05-07T01:37:36;11;9;
78063;PMS5003;67429;51.596;-3.264;2023-05-07T01:40:02;9;8;
78063;PMS5003;67429;51.596;-3.264;2023-05-07T01:42:27;14;13;
78063;PMS5003;67429;51.596;-3.264;2023-05-07T01:44:53;11;11;
78063;PMS5003;67429;51.596;-3.264;2023-05-07T01:47:19;12;11;
78063;PMS5003;67429;51.596;-3.264;2023-05-07T01:49:44;13;13;
78063;PMS5003;67429;51.596;-3.264;2023-05-07T01:52:10;7;7;
78063;PMS5003;67429;51.596;-3.264;2023-05-07T01:54:35;10;8;
78063;PMS5003;67429;51.596;-3.264;2023-05-07T01:57:01;12;10;
78063;PMS5003;67429;51.596;-3.264;2023-05-07T01:59:27;8;7;
78063;PMS5003;67429;51.596;-3.264;2023-05-07T02:01:52;10;10;
78063;PMS5003;67429;51.596;-3.264;2023-05-07T02:04:18;10;10;
78063;PMS5003;67429;51.596;-3.264;2023-05-07T02:06:44;7;7;
78063;PMS5003;67429;51.596;-3.264;2023-05-07T02:09:09;11;10;
78063;PMS5003;67429;51.596;-3.264;2023-05-07T02:11:35;8;7;
78063;PMS5003;67429;51.596;-3.264;2023-05-07T02:14:00;10;10;
78063;PMS5003;67429;51.596;-3.264;2023-05-07T02:16:26;7;7;
78063;PMS5003;67429;51.596;-3.264;2023-05-07T02:18:51;12;11;
78063;PMS5003;67429;51.596;-3.264;2023-05-07T02:21:17;7;6;
78063;PMS5003;67429;51.596;-3.264;2023-05-07T02:23:42;8;8;
78063;PMS5003;67429;51.596;-3.264;2023-05-07T02:26:08;8;8;
78063;PMS5003;67429;51.596;-3.264;2023-05-07T02:28:34;10;8;
78063;PMS5003;67429;51.596;-3.264;2023-05-07T02:30:59;8;8;
78063;PMS5003;67429;51.596;-3.264;2023-05-07T02:33:25;10;10;
78063;PMS5003;67429;51.596;-3.264;2023-05-07T02:35:50;8;7;
78063;PMS5003;67429;51.596;-3.264;2023-05-07T02:38:16;12;11;
78063;PMS5003;67429;51.596;-3.264;2023-05-07T02:40:42;8;8;
78063;PMS5003;67429;51.596;-3.264;2023-05-07T02:43:07;8;8;
78063;PMS5003;67429;51.596;-3.264;2023-05-07T02:45:33;10;10;
78063;PMS5003;67429;51.596;-3.264;2023-05-07T02:47:59;10;10;
78063;PMS5003;67429;51.596;-3.264;2023-05-07T02:50:24;7;7;
78063;PMS5003;67429;51.596;-3.264;2023-05-07T02:52:50;11;10;
78063;PMS5003;67429;51.596;-3.264;2023-05-07T02:55:16;11;10;
78063;PMS5003;67429;51.596;-3.264;2023-05-07T02:57:41;13;12;
78063;PMS5003;67429;51.596;-3.264;2023-05-07T03:00:14;9;9;
78063;PMS5003;67429;51.596;-3.264;2023-05-07T03:02:32;11;10;
78063;PMS5003;67429;51.596;-3.264;2023-05-07T03:04:58;9;9;
78063;PMS5003;67429;51.596;-3.264;2023-05-07T03:07:23;12;12;
78063;PMS5003;67429;51.596;-3.264;2023-05-07T03:09:49;9;9;
78063;PMS5003;67429;51.596;-3.264;2023-05-07T03:12:14;12;12;
78063;PMS5003;67429;51.596;-3.264;2023-05-07T03:14:40;12;12;
78063;PMS5003;67429;51.596;-3.264;2023-05-07T03:17:05;7;7;
78063;PMS5003;67429;51.596;-3.264;2023-05-07T03:19:31;11;11;
78063;PMS5003;67429;51.596;-3.264;2023-05-07T03:21:57;9;9;
78063;PMS5003;67429;51.596;-3.264;2023-05-07T03:24:22;9;9;
78063;PMS5003;67429;51.596;-3.264;2023-05-07T03:26:47;17;17;
78063;PMS5003;67429;51.596;-3.264;2023-05-07T03:29:14;12;11;
78063;PMS5003;67429;51.596;-3.264;2023-05-07T03:31:39;12;12;
78063;PMS5003;67429;51.596;-3.264;2023-05-07T03:34:05;10;10;
78063;PMS5003;67429;51.596;-3.264;2023-05-07T03:36:30;10;9;
78063;PMS5003;67429;51.596;-3.264;2023-05-07T03:38:55;10;10;
78063;PMS5003;67429;51.596;-3.264;2023-05-07T03:41:21;13;12;
78063;PMS5003;67429;51.596;-3.264;2023-05-07T03:43:47;16;16;
78063;PMS5003;67429;51.596;-3.264;2023-05-07T03:46:13;19;16;
78063;PMS5003;67429;51.596;-3.264;2023-05-07T03:48:38;16;13;
78063;PMS5003;67429;51.596;-3.264;2023-05-07T03:51:04;14;14;
78063;PMS5003;67429;51.596;-3.264;2023-05-07T03:53:29;20;19;
78063;PMS5003;67429;51.596;-3.264;2023-05-07T03:55:54;25;24;
78063;PMS5003;67429;51.596;-3.264;2023-05-07T03:58:20;48;46;
78063;PMS5003;67429;51.596;-3.264;2023-05-07T04:00:45;100;93;
78063;PMS5003;67429;51.596;-3.264;2023-05-07T04:03:10;40;38;
78063;PMS5003;67429;51.596;-3.264;2023-05-07T04:05:36;26;25;
78063;PMS5003;67429;51.596;-3.264;2023-05-07T04:08:01;20;18;
78063;PMS5003;67429;51.596;-3.264;2023-05-07T04:10:26;9;9;
78063;PMS5003;67429;51.596;-3.264;2023-05-07T04:12:52;12;12;
78063;PMS5003;67429;51.596;-3.264;2023-05-07T04:15:17;10;9;
78063;PMS5003;67429;51.596;-3.264;2023-05-07T04:17:43;10;10;
78063;PMS5003;67429;51.596;-3.264;2023-05-07T04:20:09;7;7;
78063;PMS5003;67429;51.596;-3.264;2023-05-07T04:22:34;12;12;
78063;PMS5003;67429;51.596;-3.264;2023-05-07T04:24:59;10;10;
78063;PMS5003;67429;51.596;-3.264;2023-05-07T04:27:25;12;10;
78063;PMS5003;67429;51.596;-3.264;2023-05-07T04:29:51;9;9;
78063;PMS5003;67429;51.596;-3.264;2023-05-07T04:32:16;9;9;
78063;PMS5003;67429;51.596;-3.264;2023-05-07T04:34:42;11;11;
78063;PMS5003;67429;51.596;-3.264;2023-05-07T04:37:08;12;12;
78063;PMS5003;67429;51.596;-3.264;2023-05-07T04:39:33;13;13;
78063;PMS5003;67429;51.596;-3.264;2023-05-07T04:41:59;11;10;
78063;PMS5003;67429;51.596;-3.264;2023-05-07T04:44:24;10;10;
78063;PMS5003;67429;51.596;-3.264;2023-05-07T04:46:51;14;12;
78063;PMS5003;67429;51.596;-3.264;2023-05-07T04:49:15;12;11;
78063;PMS5003;67429;51.596;-3.264;2023-05-07T04:51:40;12;9;
78063;PMS5003;67429;51.596;-3.264;2023-05-07T04:54:06;12;11;
78063;PMS5003;67429;51.596;-3.264;2023-05-07T04:56:32;11;11;
78063;PMS5003;67429;51.596;-3.264;2023-05-07T04:58:57;12;11;
78063;PMS5003;67429;51.596;-3.264;2023-05-07T05:01:23;9;9;
78063;PMS5003;67429;51.596;-3.264;2023-05-07T05:03:48;10;10;
78063;PMS5003;67429;51.596;-3.264;2023-05-07T05:06:13;11;10;
78063;PMS5003;67429;51.596;-3.264;2023-05-07T05:08:38;12;12;
78063;PMS5003;67429;51.596;-3.264;2023-05-07T05:11:04;10;10;
78063;PMS5003;67429;51.596;-3.264;2023-05-07T05:13:29;12;12;
78063;PMS5003;67429;51.596;-3.264;2023-05-07T05:15:54;9;9;
78063;PMS5003;67429;51.596;-3.264;2023-05-07T05:18:20;10;10;
78063;PMS5003;67429;51.596;-3.264;2023-05-07T05:20:45;10;10;
78063;PMS5003;67429;51.596;-3.264;2023-05-07T05:23:11;6;6;
78063;PMS5003;67429;51.596;-3.264;2023-05-07T05:25:36;13;12;
78063;PMS5003;67429;51.596;-3.264;2023-05-07T05:28:02;9;9;
78063;PMS5003;67429;51.596;-3.264;2023-05-07T05:30:27;9;9;
78063;PMS5003;67429;51.596;-3.264;2023-05-07T05:32:53;12;8;
78063;PMS5003;67429;51.596;-3.264;2023-05-07T05:35:19;11;10;
78063;PMS5003;67429;51.596;-3.264;2023-05-07T05:37:44;10;8;
78063;PMS5003;67429;51.596;-3.264;2023-05-07T05:40:10;10;10;
78063;PMS5003;67429;51.596;-3.264;2023-05-07T05:42:35;11;10;
78063;PMS5003;67429;51.596;-3.264;2023-05-07T05:45:01;10;8;
78063;PMS5003;67429;51.596;-3.264;2023-05-07T05:47:26;11;11;
78063;PMS5003;67429;51.596;-3.264;2023-05-07T05:49:52;13;12;
78063;PMS5003;67429;51.596;-3.264;2023-05-07T05:52:17;9;8;
78063;PMS5003;67429;51.596;-3.264;2023-05-07T05:54:43;9;8;
78063;PMS5003;67429;51.596;-3.264;2023-05-07T05:57:08;11;9;
78063;PMS5003;67429;51.596;-3.264;2023-05-07T05:59:34;10;7;
78063;PMS5003;67429;51.596;-3.264;2023-05-07T06:01:59;9;8;
78063;PMS5003;67429;51.596;-3.264;2023-05-07T06:04:25;8;8;
78063;PMS5003;67429;51.596;-3.264;2023-05-07T06:06:50;7;6;
78063;PMS5003;67429;51.596;-3.264;2023-05-07T06:09:16;10;10;
78063;PMS5003;67429;51.596;-3.264;2023-05-07T06:11:41;13;10;
78063;PMS5003;67429;51.596;-3.264;2023-05-07T06:14:06;8;7;
78063;PMS5003;67429;51.596;-3.264;2023-05-07T06:16:32;9;9;
78063;PMS5003;67429;51.596;-3.264;2023-05-07T06:18:58;10;10;
78063;PMS5003;67429;51.596;-3.264;2023-05-07T06:21:23;10;10;
78063;PMS5003;67429;51.596;-3.264;2023-05-07T06:23:49;7;7;
78063;PMS5003;67429;51.596;-3.264;2023-05-07T06:26:14;12;12;
78063;PMS5003;67429;51.596;-3.264;2023-05-07T06:28:40;8;8;
78063;PMS5003;67429;51.596;-3.264;2023-05-07T06:31:11;8;8;
78063;PMS5003;67429;51.596;-3.264;2023-05-07T06:33:31;13;12;
78063;PMS5003;67429;51.596;-3.264;2023-05-07T06:35:57;10;9;
78063;PMS5003;67429;51.596;-3.264;2023-05-07T06:38:22;9;9;
78063;PMS5003;67429;51.596;-3.264;2023-05-07T06:40:48;8;8;
78063;PMS5003;67429;51.596;-3.264;2023-05-07T06:43:13;7;7;
78063;PMS5003;67429;51.596;-3.264;2023-05-07T06:45:39;7;6;
78063;PMS5003;67429;51.596;-3.264;2023-05-07T06:48:04;9;9;
78063;PMS5003;67429;51.596;-3.264;2023-05-07T06:50:29;8;8;
78063;PMS5003;67429;51.596;-3.264;2023-05-07T06:52:55;9;9;
78063;PMS5003;67429;51.596;-3.264;2023-05-07T06:55:21;9;9;
78063;PMS5003;67429;51.596;-3.264;2023-05-07T06:57:46;7;7;
78063;PMS5003;67429;51.596;-3.264;2023-05-07T07:00:13;8;8;
78063;PMS5003;67429;51.596;-3.264;2023-05-07T07:02:37;9;9;
78063;PMS5003;67429;51.596;-3.264;2023-05-07T07:05:03;10;9;
78063;PMS5003;67429;51.596;-3.264;2023-05-07T07:07:28;10;10;
78063;PMS5003;67429;51.596;-3.264;2023-05-07T07:09:54;10;9;
78063;PMS5003;67429;51.596;-3.264;2023-05-07T07:12:19;9;8;
78063;PMS5003;67429;51.596;-3.264;2023-05-07T07:14:45;9;9;
78063;PMS5003;67429;51.596;-3.264;2023-05-07T07:17:10;8;7;
78063;PMS5003;67429;51.596;-3.264;2023-05-07T07:19:36;6;6;
78063;PMS5003;67429;51.596;-3.264;2023-05-07T07:22:02;10;8;
78063;PMS5003;67429;51.596;-3.264;2023-05-07T07:24:27;10;9;
78063;PMS5003;67429;51.596;-3.264;2023-05-07T07:26:52;7;7;
78063;PMS5003;67429;51.596;-3.264;2023-05-07T07:29:18;8;7;
78063;PMS5003;67429;51.596;-3.264;2023-05-07T07:31:44;7;6;
78063;PMS5003;67429;51.596;-3.264;2023-05-07T07:34:09;5;5;
78063;PMS5003;67429;51.596;-3.264;2023-05-07T07:36:35;7;7;
78063;PMS5003;67429;51.596;-3.264;2023-05-07T07:39:00;6;6;
78063;PMS5003;67429;51.596;-3.264;2023-05-07T07:41:26;6;6;
78063;PMS5003;67429;51.596;-3.264;2023-05-07T07:43:51;9;8;
78063;PMS5003;67429;51.596;-3.264;2023-05-07T07:46:17;7;7;
78063;PMS5003;67429;51.596;-3.264;2023-05-07T07:48:42;6;5;
78063;PMS5003;67429;51.596;-3.264;2023-05-07T07:51:08;6;6;
78063;PMS5003;67429;51.596;-3.264;2023-05-07T07:53:33;4;4;
78063;PMS5003;67429;51.596;-3.264;2023-05-07T07:55:59;5;5;
78063;PMS5003;67429;51.596;-3.264;2023-05-07T07:58:25;5;5;
78063;PMS5003;67429;51.596;-3.264;2023-05-07T08:00:50;6;6;
78063;PMS5003;67429;51.596;-3.264;2023-05-07T08:03:16;9;8;
78063;PMS5003;67429;51.596;-3.264;2023-05-07T08:05:42;6;6;
78063;PMS5003;67429;51.596;-3.264;2023-05-07T08:08:07;8;7;
78063;PMS5003;67429;51.596;-3.264;2023-05-07T08:10:32;9;8;
78063;PMS5003;67429;51.596;-3.264;2023-05-07T08:12:58;7;6;
78063;PMS5003;67429;51.596;-3.264;2023-05-07T08:15:23;5;5;
78063;PMS5003;67429;51.596;-3.264;2023-05-07T08:17:49;6;6;
78063;PMS5003;67429;51.596;-3.264;2023-05-07T08:20:15;5;4;
78063;PMS5003;67429;51.596;-3.264;2023-05-07T08:22:41;5;5;
78063;PMS5003;67429;51.596;-3.264;2023-05-07T08:25:06;5;5;
78063;PMS5003;67429;51.596;-3.264;2023-05-07T08:27:31;5;5;
78063;PMS5003;67429;51.596;-3.264;2023-05-07T08:29:57;4;4;
78063;PMS5003;67429;51.596;-3.264;2023-05-07T08:32:22;6;5;
78063;PMS5003;67429;51.596;-3.264;2023-05-07T08:34:48;6;5;
78063;PMS5003;67429;51.596;-3.264;2023-05-07T08:37:14;3;3;
78063;PMS5003;67429;51.596;-3.264;2023-05-07T08:39:39;7;6;
78063;PMS5003;67429;51.596;-3.264;2023-05-07T08:42:05;4;4;
78063;PMS5003;67429;51.596;-3.264;2023-05-07T08:44:32;5;4;
78063;PMS5003;67429;51.596;-3.264;2023-05-07T08:46:56;7;5;
78063;PMS5003;67429;51.596;-3.264;2023-05-07T08:49:22;4;3;
78063;PMS5003;67429;51.596;-3.264;2023-05-07T08:51:47;4;4;
78063;PMS5003;67429;51.596;-3.264;2023-05-07T08:54:13;6;5;
78063;PMS5003;67429;51.596;-3.264;2023-05-07T08:56:38;3;3;
78063;PMS5003;67429;51.596;-3.264;2023-05-07T08:59:04;8;6;
78063;PMS5003;67429;51.596;-3.264;2023-05-07T09:01:29;3;3;
78063;PMS5003;67429;51.596;-3.264;2023-05-07T09:03:55;6;6;
78063;PMS5003;67429;51.596;-3.264;2023-05-07T09:06:20;3;3;
78063;PMS5003;67429;51.596;-3.264;2023-05-07T09:08:49;4;4;
78063;PMS5003;67429;51.596;-3.264;2023-05-07T09:11:12;3;3;
78063;PMS5003;67429;51.596;-3.264;2023-05-07T09:13:37;2;2;
78063;PMS5003;67429;51.596;-3.264;2023-05-07T09:16:11;4;4;
78063;PMS5003;67429;51.596;-3.264;2023-05-07T09:18:28;3;3;
78063;PMS5003;67429;51.596;-3.264;2023-05-07T09:20:54;4;4;
78063;PMS5003;67429;51.596;-3.264;2023-05-07T09:23:20;4;3;
78063;PMS5003;67429;51.596;-3.264;2023-05-07T09:25:45;3;3;
78063;PMS5003;67429;51.596;-3.264;2023-05-07T09:28:10;5;5;
78063;PMS5003;67429;51.596;-3.264;2023-05-07T09:30:36;4;4;
78063;PMS5003;67429;51.596;-3.264;2023-05-07T09:33:03;5;5;
78063;PMS5003;67429;51.596;-3.264;2023-05-07T09:35:27;4;4;
78063;PMS5003;67429;51.596;-3.264;2023-05-07T09:37:53;3;3;
78063;PMS5003;67429;51.596;-3.264;2023-05-07T09:40:21;4;4;
78063;PMS5003;67429;51.596;-3.264;2023-05-07T09:42:44;4;4;
78063;PMS5003;67429;51.596;-3.264;2023-05-07T09:45:09;2;2;
78063;PMS5003;67429;51.596;-3.264;2023-05-07T09:47:35;4;4;
78063;PMS5003;67429;51.596;-3.264;2023-05-07T09:50:00;6;5;
78063;PMS5003;67429;51.596;-3.264;2023-05-07T09:52:26;4;4;
78063;PMS5003;67429;51.596;-3.264;2023-05-07T09:54:51;6;6;
78063;PMS5003;67429;51.596;-3.264;2023-05-07T09:57:17;3;3;
78063;PMS5003;67429;51.596;-3.264;2023-05-07T09:59:43;3;3;
78063;PMS5003;67429;51.596;-3.264;2023-05-07T10:02:08;6;5;
78063;PMS5003;67429;51.596;-3.264;2023-05-07T10:04:33;5;4;
78063;PMS5003;67429;51.596;-3.264;2023-05-07T10:06:59;4;4;
78063;PMS5003;67429;51.596;-3.264;2023-05-07T10:09:25;2;2;
78063;PMS5003;67429;51.596;-3.264;2023-05-07T10:11:50;5;4;
78063;PMS5003;67429;51.596;-3.264;2023-05-07T10:14:15;4;4;
78063;PMS5003;67429;51.596;-3.264;2023-05-07T10:16:41;5;5;
78063;PMS5003;67429;51.596;-3.264;2023-05-07T10:19:07;4;4;
78063;PMS5003;67429;51.596;-3.264;2023-05-07T10:21:33;4;4;
78063;PMS5003;67429;51.596;-3.264;2023-05-07T10:23:58;4;3;
78063;PMS5003;67429;51.596;-3.264;2023-05-07T10:26:23;6;5;
78063;PMS5003;67429;51.596;-3.264;2023-05-07T10:28:49;4;4;
78063;PMS5003;67429;51.596;-3.264;2023-05-07T10:31:18;3;3;
78063;PMS5003;67429;51.596;-3.264;2023-05-07T10:33:40;4;4;
78063;PMS5003;67429;51.596;-3.264;2023-05-07T10:36:05;3;3;
78063;PMS5003;67429;51.596;-3.264;2023-05-07T10:38:30;4;4;
78063;PMS5003;67429;51.596;-3.264;2023-05-07T10:40:56;3;2;
78063;PMS5003;67429;51.596;-3.264;2023-05-07T10:43:21;3;3;
78063;PMS5003;67429;51.596;-3.264;2023-05-07T10:48:13;3;3;
78063;PMS5003;67429;51.596;-3.264;2023-05-07T10:50:38;4;3;
78063;PMS5003;67429;51.596;-3.264;2023-05-07T10:55:28;9;8;
78063;PMS5003;67429;51.596;-3.264;2023-05-07T10:57:54;23;22;
78063;PMS5003;67429;51.596;-3.264;2023-05-07T11:07:35;29;29;
78063;PMS5003;67429;51.596;-3.264;2023-05-07T11:10:03;31;29;
78063;PMS5003;67429;51.596;-3.264;2023-05-07T11:14:52;37;35;
78063;PMS5003;67429;51.596;-3.264;2023-05-07T11:17:18;37;37;
78063;PMS5003;67429;51.596;-3.264;2023-05-07T11:19:48;40;38;
78063;PMS5003;67429;51.596;-3.264;2023-05-07T11:24:37;38;36;
78063;PMS5003;67429;51.596;-3.264;2023-05-07T11:26:58;39;37;
78063;PMS5003;67429;51.596;-3.264;2023-05-07T11:29:24;33;30;
78063;PMS5003;67429;51.596;-3.264;2023-05-07T11:31:49;40;37;
78063;PMS5003;67429;51.596;-3.264;2023-05-07T11:34:15;36;35;
78063;PMS5003;67429;51.596;-3.264;2023-05-07T11:36:41;35;33;
78063;PMS5003;67429;51.596;-3.264;2023-05-07T11:39:05;41;40;
78063;PMS5003;67429;51.596;-3.264;2023-05-07T11:41:33;38;33;
78063;PMS5003;67429;51.596;-3.264;2023-05-07T11:43:56;44;43;
78063;PMS5003;67429;51.596;-3.264;2023-05-07T11:46:21;36;36;
78063;PMS5003;67429;51.596;-3.264;2023-05-07T11:48:47;42;40;
78063;PMS5003;67429;51.596;-3.264;2023-05-07T11:51:12;41;40;
78063;PMS5003;67429;51.596;-3.264;2023-05-07T11:53:38;38;36;
78063;PMS5003;67429;51.596;-3.264;2023-05-07T11:56:06;30;29;
78063;PMS5003;67429;51.596;-3.264;2023-05-07T11:58:28;34;33;
78063;PMS5003;67429;51.596;-3.264;2023-05-07T12:00:54;41;36;
78063;PMS5003;67429;51.596;-3.264;2023-05-07T12:03:19;33;30;
78063;PMS5003;67429;51.596;-3.264;2023-05-07T12:05:44;24;24;
78063;PMS5003;67429;51.596;-3.264;2023-05-07T12:08:13;22;22;
78063;PMS5003;67429;51.596;-3.264;2023-05-07T12:10:35;21;20;
78063;PMS5003;67429;51.596;-3.264;2023-05-07T12:13:00;22;22;
78063;PMS5003;67429;51.596;-3.264;2023-05-07T12:15:26;24;22;
78063;PMS5003;67429;51.596;-3.264;2023-05-07T12:17:51;22;21;
78063;PMS5003;67429;51.596;-3.264;2023-05-07T12:20:17;18;18;
78063;PMS5003;67429;51.596;-3.264;2023-05-07T12:22:43;18;18;
78063;PMS5003;67429;51.596;-3.264;2023-05-07T12:25:09;23;22;
78063;PMS5003;67429;51.596;-3.264;2023-05-07T12:27:36;24;24;
78063;PMS5003;67429;51.596;-3.264;2023-05-07T12:29:59;29;28;
78063;PMS5003;67429;51.596;-3.264;2023-05-07T12:32:25;33;29;
78063;PMS5003;67429;51.596;-3.264;2023-05-07T12:34:50;32;30;
78063;PMS5003;67429;51.596;-3.264;2023-05-07T12:37:15;30;28;
78063;PMS5003;67429;51.596;-3.264;2023-05-07T12:42:07;33;32;
78063;PMS5003;67429;51.596;-3.264;2023-05-07T12:44:32;34;32;
78063;PMS5003;67429;51.596;-3.264;2023-05-07T12:46:57;29;28;
78063;PMS5003;67429;51.596;-3.264;2023-05-07T12:49:23;30;29;
78063;PMS5003;67429;51.596;-3.264;2023-05-07T12:51:48;27;26;
78063;PMS5003;67429;51.596;-3.264;2023-05-07T12:54:14;33;32;
78063;PMS5003;67429;51.596;-3.264;2023-05-07T12:56:39;38;36;
78063;PMS5003;67429;51.596;-3.264;2023-05-07T12:59:05;29;28;
78063;PMS5003;67429;51.596;-3.264;2023-05-07T13:01:31;31;29;
78063;PMS5003;67429;51.596;-3.264;2023-05-07T13:03:55;26;25;
78063;PMS5003;67429;51.596;-3.264;2023-05-07T13:06:21;23;22;
78063;PMS5003;67429;51.596;-3.264;2023-05-07T13:08:46;25;24;
78063;PMS5003;67429;51.596;-3.264;2023-05-07T13:11:12;23;22;
78063;PMS5003;67429;51.596;-3.264;2023-05-07T13:13:38;21;21;
78063;PMS5003;67429;51.596;-3.264;2023-05-07T13:16:03;18;17;
78063;PMS5003;67429;51.596;-3.264;2023-05-07T13:18:29;20;19;
78063;PMS5003;67429;51.596;-3.264;2023-05-07T13:20:53;21;19;
78063;PMS5003;67429;51.596;-3.264;2023-05-07T13:23:19;20;20;
78063;PMS5003;67429;51.596;-3.264;2023-05-07T13:25:45;15;14;
78063;PMS5003;67429;51.596;-3.264;2023-05-07T13:28:10;20;19;
78063;PMS5003;67429;51.596;-3.264;2023-05-07T13:30:35;19;18;
78063;PMS5003;67429;51.596;-3.264;2023-05-07T13:33:01;21;21;
78063;PMS5003;67429;51.596;-3.264;2023-05-07T13:35:27;20;19;
78063;PMS5003;67429;51.596;-3.264;2023-05-07T13:37:52;25;24;
78063;PMS5003;67429;51.596;-3.264;2023-05-07T13:40:18;18;18;
78063;PMS5003;67429;51.596;-3.264;2023-05-07T13:42:43;26;25;
78063;PMS5003;67429;51.596;-3.264;2023-05-07T13:45:08;23;21;
78063;PMS5003;67429;51.596;-3.264;2023-05-07T13:47:34;21;21;
78063;PMS5003;67429;51.596;-3.264;2023-05-07T13:49:59;22;22;
78063;PMS5003;67429;51.596;-3.264;2023-05-07T13:52:24;19;18;
78063;PMS5003;67429;51.596;-3.264;2023-05-07T13:54:50;20;20;
78063;PMS5003;67429;51.596;-3.264;2023-05-07T13:57:15;22;21;
78063;PMS5003;67429;51.596;-3.264;2023-05-07T13:59:42;15;15;
78063;PMS5003;67429;51.596;-3.264;2023-05-07T14:02:06;12;12;
78063;PMS5003;67429;51.596;-3.264;2023-05-07T14:04:32;8;8;
78063;PMS5003;67429;51.596;-3.264;2023-05-07T14:06:57;7;7;
78063;PMS5003;67429;51.596;-3.264;2023-05-07T14:09:23;7;6;
78063;PMS5003;67429;51.596;-3.264;2023-05-07T14:11:48;14;13;
78063;PMS5003;67429;51.596;-3.264;2023-05-07T14:14:13;16;14;
78063;PMS5003;67429;51.596;-3.264;2023-05-07T14:16:39;14;14;
78063;PMS5003;67429;51.596;-3.264;2023-05-07T14:19:04;14;14;
78063;PMS5003;67429;51.596;-3.264;2023-05-07T14:21:29;15;15;
78063;PMS5003;67429;51.596;-3.264;2023-05-07T14:23:54;12;11;
78063;PMS5003;67429;51.596;-3.264;2023-05-07T14:26:20;11;10;
78063;PMS5003;67429;51.596;-3.264;2023-05-07T14:28:45;16;15;
78063;PMS5003;67429;51.596;-3.264;2023-05-07T14:31:11;17;17;
78063;PMS5003;67429;51.596;-3.264;2023-05-07T14:33:36;19;19;
78063;PMS5003;67429;51.596;-3.264;2023-05-07T14:36:01;22;21;
78063;PMS5003;67429;51.596;-3.264;2023-05-07T14:38:27;17;17;
78063;PMS5003;67429;51.596;-3.264;2023-05-07T14:40:52;12;12;
78063;PMS5003;67429;51.596;-3.264;2023-05-07T14:43:18;12;12;
78063;PMS5003;67429;51.596;-3.264;2023-05-07T14:45:43;14;14;
78063;PMS5003;67429;51.596;-3.264;2023-05-07T14:48:08;16;16;
78063;PMS5003;67429;51.596;-3.264;2023-05-07T14:50:34;13;13;
78063;PMS5003;67429;51.596;-3.264;2023-05-07T14:52:59;11;10;
78063;PMS5003;67429;51.596;-3.264;2023-05-07T14:55:24;9;9;
78063;PMS5003;67429;51.596;-3.264;2023-05-07T14:57:50;11;10;
78063;PMS5003;67429;51.596;-3.264;2023-05-07T15:00:15;15;14;
78063;PMS5003;67429;51.596;-3.264;2023-05-07T15:02:41;11;11;
78063;PMS5003;67429;51.596;-3.264;2023-05-07T15:05:06;13;12;
78063;PMS5003;67429;51.596;-3.264;2023-05-07T15:07:31;15;14;
78063;PMS5003;67429;51.596;-3.264;2023-05-07T15:09:56;15;15;
78063;PMS5003;67429;51.596;-3.264;2023-05-07T15:12:22;10;9;
78063;PMS5003;67429;51.596;-3.264;2023-05-07T15:14:47;9;9;
78063;PMS5003;67429;51.596;-3.264;2023-05-07T15:17:12;7;7;
78063;PMS5003;67429;51.596;-3.264;2023-05-07T15:19:38;8;8;
78063;PMS5003;67429;51.596;-3.264;2023-05-07T15:22:04;5;5;
78063;PMS5003;67429;51.596;-3.264;2023-05-07T15:24:29;8;8;
78063;PMS5003;67429;51.596;-3.264;2023-05-07T15:26:54;6;6;
78063;PMS5003;67429;51.596;-3.264;2023-05-07T15:29:20;10;9;
78063;PMS5003;67429;51.596;-3.264;2023-05-07T15:31:45;8;8;
78063;PMS5003;67429;51.596;-3.264;2023-05-07T15:34:11;7;7;
78063;PMS5003;67429;51.596;-3.264;2023-05-07T15:36:36;6;6;
78063;PMS5003;67429;51.596;-3.264;2023-05-07T15:39:02;6;6;
78063;PMS5003;67429;51.596;-3.264;2023-05-07T15:41:27;7;7;
78063;PMS5003;67429;51.596;-3.264;2023-05-07T15:43:53;5;5;
78063;PMS5003;67429;51.596;-3.264;2023-05-07T15:46:18;5;5;
78063;PMS5003;67429;51.596;-3.264;2023-05-07T15:48:43;5;5;
78063;PMS5003;67429;51.596;-3.264;2023-05-07T15:51:09;4;4;
78063;PMS5003;67429;51.596;-3.264;2023-05-07T15:53:34;4;4;
78063;PMS5003;67429;51.596;-3.264;2023-05-07T15:55:59;5;4;
78063;PMS5003;67429;51.596;-3.264;2023-05-07T15:58:25;5;5;
78063;PMS5003;67429;51.596;-3.264;2023-05-07T16:00:50;2;2;
78063;PMS5003;67429;51.596;-3.264;2023-05-07T16:03:16;3;2;
78063;PMS5003;67429;51.596;-3.264;2023-05-07T16:05:41;3;2;
78063;PMS5003;67429;51.596;-3.264;2023-05-07T16:08:07;2;2;
78063;PMS5003;67429;51.596;-3.264;2023-05-07T16:10:32;2;2;
78063;PMS5003;67429;51.596;-3.264;2023-05-07T16:12:58;2;2;
78063;PMS5003;67429;51.596;-3.264;2023-05-07T16:15:23;2;2;
78063;PMS5003;67429;51.596;-3.264;2023-05-07T16:17:48;2;2;
78063;PMS5003;67429;51.596;-3.264;2023-05-07T16:20:14;1;1;
78063;PMS5003;67429;51.596;-3.264;2023-05-07T16:22:39;2;1;